Flight Track Log - Related Links

Times and Time Zones

All times are in EDT time to prevent confusion due to time zone crossing. See the CTL17 flight status page for this flight to view local times or setup timezone preferences in your user account.

Time Position Orientation Groundspeed Altitude Reporting Facility
EDT Latitude Longitude Course Direction KTS MPH feet Rate Location/Type
Thu 06:45:26 PM 41.5714 -81.6489 26° Northeast 139 160 2,000  Level Cleveland Center
Thu 06:46:33 PM 41.6025 -81.6800 323° Northwest 162 186 2,700 141 Climbing Cleveland Center
Thu 06:47:34 PM 41.5769 -81.7239 232° Southwest 170 196 2,300 -641 Descending Cleveland Center
Thu 06:48:16 PM 41.5456 -81.7428 204° Southwest 178 205 1,600 -699 Descending Cleveland Center
Thu 06:49:17 PM 41.5083 -81.7172 153° Southeast 120 138 1,100 Descending Cleveland Center
Thu 07:17:12 PM 41.5544 -81.6681 North 122 140 1,800 38 Climbing Cleveland Center
Thu 07:18:13 PM 41.5942 -81.6797 348° North 160 184 2,200 492 Climbing Cleveland Center
Thu 07:19:14 PM 41.6356 -81.7028 337° Northwest 147 169 2,800 541 Climbing Cleveland Center
Thu 07:20:15 PM 41.6517 -81.7531 293° West 149 171 3,300 492 Climbing Cleveland Center
Thu 07:21:16 PM 41.6658 -81.8033 291° West 145 167 3,800 541 Climbing Cleveland Center
Thu 07:22:17 PM 41.6778 -81.8536 288° West 140 161 4,400 541 Climbing Cleveland Center
Thu 07:23:18 PM 41.6897 -81.8983 290° West 138 159 4,900 545 Climbing Cleveland Center
Thu 07:24:18 PM 41.7017 -81.9486 288° West 134 154 5,500 545 Climbing Cleveland Center
Thu 07:25:19 PM 41.7136 -81.9961 289° West 132 152 6,000 344 Climbing Cleveland Center
Thu 07:26:20 PM 41.7256 -82.0467 288° West 140 161 6,200 98 Climbing Cleveland Center
Thu 07:27:21 PM 41.7372 -82.1025 286° West 152 175 6,200 -148 Level Cleveland Center
Thu 07:28:22 PM 41.7489 -82.1583 286° West 152 175 5,900 -72 Descending Cleveland Center
Thu 07:30:07 PM 41.7728 -82.2481 290° West 152 175 6,000 70 Climbing Cleveland Center
Thu 07:31:14 PM 41.8075 -82.2881 319° Northwest 160 184 6,100 47 Climbing Cleveland Center
Thu 07:32:15 PM 41.8425 -82.3308 318° Northwest 157 181 6,100  Level Cleveland Center
Thu 07:33:22 PM 41.8792 -82.3736 319° Northwest 159 183 6,100 -45 Level Cleveland Center
Thu 07:34:29 PM 41.9161 -82.4219 316° Northwest 159 183 6,000  Descending Cleveland Center
Thu 07:35:24 PM 41.9467 -82.4564 320° Northwest 161 185 6,100 50 Climbing Cleveland Center
Thu 07:36:30 PM 41.9814 -82.5022 316° Northwest 157 181 6,100  Level Cleveland Center
Thu 07:37:31 PM 42.0119 -82.5478 312° West 158 182 6,100  Level Cleveland Center
Thu 07:38:32 PM 42.0444 -82.5881 317° Northwest 160 184 6,100 -49 Level Cleveland Center
Thu 07:39:33 PM 42.0772 -82.6281 318° Northwest 159 183 6,000  Descending Cleveland Center
Thu 07:40:40 PM 42.1183 -82.6631 328° Northwest 160 184 6,100 47 Climbing Cleveland Center
Thu 07:41:41 PM 42.1572 -82.6978 327° Northwest 161 185 6,100  Level Cleveland Center
Thu 07:42:36 PM 42.1878 -82.7381 316° Northwest 164 189 6,100 -49 Level Cleveland Center
Thu 07:43:43 PM 42.2267 -82.7731 326° Northwest 154 177 6,000 -52 Descending Cleveland Center
Thu 07:44:32 PM 42.2575 -82.8022 325° Northwest 156 180 6,000 52 Level Cleveland Center
Thu 07:45:39 PM 42.2964 -82.8372 326° Northwest 155 178 6,100 47 Climbing Cleveland Center
Thu 07:46:40 PM 42.3331 -82.8722 325° Northwest 155 178 6,100 -49 Level Cleveland Center
Thu 07:47:41 PM 42.3658 -82.9100 320° Northwest 158 182 6,000 -414 Descending Cleveland Center
Thu 07:48:36 PM 42.4006 -82.9478 321° Northwest 178 205 5,300 -881 Descending Cleveland Center
Thu 07:49:30 PM 42.4394 -82.9831 326° Northwest 178 205 4,400 -645 Descending Cleveland Center
Thu 07:50:37 PM 42.4822 -83.0242 325° Northwest 177 204 4,000 -171 Descending Cleveland Center
Thu 07:51:50 PM 42.5292 -83.0739 322° Northwest 165 190 4,000  Level Cleveland Center
Thu 07:52:51 PM 42.5658 -83.1092 325° Northwest 167 192 4,000 -310 Level Cleveland Center
Thu 07:53:46 PM 42.5919 -83.1581 306° West 177 204 3,400 -724 Descending Cleveland Center
Thu 07:54:47 PM 42.6156 -83.2128 300° West 180 207 2,600 -672 Descending Cleveland Center
Thu 07:55:42 PM 42.6372 -83.2672 298° West 175 201 2,100 -344 Descending Cleveland Center
Thu 07:56:49 PM 42.6567 -83.3275 294° West 154 177 1,900 -281 Descending Cleveland Center
Thu 07:57:50 PM 42.6658 -83.3786 284° West 119 137 1,500 -393 Descending Cleveland Center
Thu 07:59:00 PM 42.6500 -83.4167 304° West  Level FlightAware Approximate

Login

Don't have an account? Register now (free) for customized features, flight alerts, and more!